Atmospheric History
02/08/2018 18:10  to  2/9/2018 18:10
Change End Date:
To complete the export process:
1) Select all of the data below
2) Copy the data to the clipboard
3) Open a word processor such as Notepad
4) Paste the data into the word processor
5) Save the file

Date/Time (MDT), AirTemp, RH, Dewpoint ,AvgWindSpeed, GustWindSpeed, WindDirection, PrecipType, PrecipIntensity, PrecipAccumulation, PrecipRate
02/09/2018 18:06, -2, 84, -6 ,0, 0, NE, None, None, ,  
02/09/2018 18:05, -2, 85, -6 ,0, 0, NE, None, None, ,  
02/09/2018 17:56, -2, 85, -6 ,0, 0, NE, None, None, ,  
02/09/2018 17:50, -3, 83, -7 ,0, 0, NE, None, None, ,  
02/09/2018 17:46, -2, 82, -6 ,0, 0, NE, None, None, ,  
02/09/2018 17:36, -2, 82, -6 ,0, 0, NE, None, None, ,  
02/09/2018 17:35, -2, 82, -6 ,0, 0, NE, None, None, ,  
02/09/2018 17:26, -1, 81, -6 ,0, 0, NE, None, None, ,  
02/09/2018 17:20, -1, 80, -5 ,0, 0, NE, None, None, ,  
02/09/2018 17:15, -1, 80, -5 ,0, 4, NE, None, None, ,  
02/09/2018 17:05, -1, 79, -5 ,0, 4, NE, None, None, ,  
02/09/2018 17:05, -1, 80, -5 ,0, 4, NE, None, None, ,  
02/09/2018 16:55, 0, 78, -6 ,2, 4, NE, None, None, ,  
02/09/2018 16:50, 0, 78, -6 ,0, 0, NE, None, None, ,  
02/09/2018 16:45, 0, 78, -5 ,0, 0, NE, None, None, ,  
02/09/2018 16:35, 0, 78, -5 ,0, 5, NE, None, None, ,  
02/09/2018 16:35, 0, 78, -5 ,0, 5, NE, None, None, ,  
02/09/2018 16:25, 0, 78, -5 ,4, 6, NE, None, None, ,  
02/09/2018 16:20, 0, 78, -5 ,4, 6, NE, None, None, ,  
02/09/2018 16:15, 1, 78, -5 ,6, 7, NE, None, None, ,  
02/09/2018 16:06, 1, 78, -4 ,6, 7, NE, None, None, ,  
02/09/2018 16:05, 1, 78, -4 ,6, 7, NE, None, None, ,  
02/09/2018 15:55, 1, 77, -4 ,7, 7, NE, None, None, ,  
02/09/2018 15:51, 2, 77, -4 ,7, 7, NE, None, None, ,  
02/09/2018 15:45, 2, 76, -4 ,7, 7, NE, None, None, ,  
02/09/2018 15:35, 2, 77, -3 ,5, 7, NE, None, None, ,  
02/09/2018 15:35, 2, 77, -3 ,5, 7, NE, None, None, ,  
02/09/2018 15:25, 3, 76, -3 ,4, 7, NE, None, None, ,  
02/09/2018 15:20, 2, 78, -3 ,4, 7, NE, None, None, ,  
02/09/2018 15:15, 2, 78, -3 ,6, 9, NE, None, None, ,  
02/09/2018 15:05, 2, 78, -3 ,7, 10, NE, None, None, ,  
02/09/2018 15:05, 2, 78, -3 ,7, 10, NE, None, None, ,  
02/09/2018 14:55, 3, 78, -2 ,6, 7, NE, None, None, ,  
02/09/2018 14:50, 3, 77, -2 ,6, 7, NE, None, None, ,  
02/09/2018 14:45, 4, 76, -2 ,4, 7, NE, None, None, ,  
02/09/2018 14:35, 4, 75, -2 ,4, 7, NE, None, None, ,  
02/09/2018 14:35, 4, 76, -2 ,5, 7, NE, None, None, ,  
02/09/2018 14:25, 5, 68, -3 ,4, 6, NE, None, None, ,  
02/09/2018 14:20, 6, 68, -3 ,0, 4, NE, None, None, ,  
02/09/2018 14:14, 5, 67, -3 ,2, 4, NE, None, None, ,  
02/09/2018 14:05, 5, 67, -4 ,0, 3, NE, None, None, ,  
02/09/2018 14:04, 5, 67, -4 ,0, 3, NE, None, None, ,  
02/09/2018 13:54, 5, 69, -3 ,3, 6, NE, None, None, ,  
02/09/2018 13:50, 4, 71, -3 ,3, 6, NE, None, None, ,  
02/09/2018 13:44, 4, 70, -3 ,4, 6, NE, None, None, ,  
02/09/2018 13:35, 4, 71, -3 ,6, 7, NE, None, None, ,  
02/09/2018 13:34, 4, 71, -3 ,6, 7, NE, None, None, ,  
02/09/2018 13:24, 4, 69, -4 ,7, 8, NE, None, None, ,  
02/09/2018 13:20, 4, 70, -3 ,2, 6, NE, None, None, ,  
02/09/2018 13:14, 4, 69, -4 ,4, 5, NE, None, None, ,  
02/09/2018 13:05, 4, 69, -4 ,4, 6, NE, None, None, ,  
02/09/2018 13:04, 4, 69, -4 ,4, 6, NE, None, None, ,  
02/09/2018 12:54, 3, 69, -4 ,4, 7, NE, None, None, ,  
02/09/2018 12:50, 3, 71, -4 ,4, 7, NE, None, None, ,  
02/09/2018 12:44, 3, 70, -4 ,6, 7, NE, None, None, ,  
02/09/2018 12:35, 3, 71, -4 ,6, 7, NE, None, None, ,  
02/09/2018 12:34, 3, 71, -5 ,6, 7, NE, None, None, ,  
02/09/2018 12:24, 3, 69, -5 ,7, 8, NE, None, None, ,  
02/09/2018 12:20, 3, 68, -5 ,3, 4, NE, None, None, ,  
02/09/2018 12:14, 4, 67, -5 ,2, 4, NE, None, None, ,  
02/09/2018 12:05, 3, 66, -5 ,0, 3, NE, None, None, ,  
02/09/2018 12:04, 3, 66, -5 ,0, 3, NE, None, None, ,  
02/09/2018 11:54, 5, 61, -5 ,0, 0, NE, None, None, ,  
02/09/2018 11:50, 6, 57, -6 ,0, 0, NE, None, None, ,  
02/09/2018 11:44, 6, 58, -5 ,0, 0, NE, Yes, , ,  
02/09/2018 11:35, 3, 66, -6 ,0, 0, NE, None, None, ,  
02/09/2018 11:34, 2, 66, -6 ,0, 0, NE, None, None, ,  
02/09/2018 11:24, 2, 69, -6 ,0, 0, NE, Yes, , ,  
02/09/2018 11:20, 2, 70, -6 ,0, 0, NE, None, None, ,  
02/09/2018 11:13, 2, 68, -6 ,0, 0, NE, None, None, ,  
02/09/2018 11:05, 5, 62, -5 ,0, 0, NE, Yes, , ,  
02/09/2018 11:03, 5, 61, -5 ,0, 0, NE, Yes, , ,  
02/09/2018 10:53, 1, 72, -6 ,0, 0, NE, Yes, , ,  
02/09/2018 10:50, 1, 73, -6 ,0, 0, NE, Yes, , ,  
02/09/2018 10:43, 1, 73, -6 ,0, 4, NE, Yes, , ,  
02/09/2018 10:35, 0, 75, -6 ,1, 4, NE, Yes, , ,  
02/09/2018 10:33, 0, 75, -6 ,0, 0, NE, Yes, , ,  
02/09/2018 10:23, 1, 75, -5 ,0, 0, NE, Yes, , ,  
02/09/2018 10:20, 0, 76, -5 ,0, 0, NE, Yes, , ,  
02/09/2018 10:13, 1, 76, -5 ,0, 0, NE, Yes, , ,  
02/09/2018 10:05, -1, 76, -6 ,0, 4, NE, Yes, , ,  
02/09/2018 10:03, -1, 77, -6 ,2, 4, NE, None, None, ,  
02/09/2018 09:53, -1, 79, -6 ,3, 5, NE, None, None, ,  
02/09/2018 09:50, -1, 78, -6 ,3, 5, NE, None, None, ,  
02/09/2018 09:43, -1, 79, -6 ,1, 4, NE, None, None, ,  
02/09/2018 09:35, -1, 79, -6 ,0, 4, NE, None, None, ,  
02/09/2018 09:33, -1, 79, -6 ,2, 4, NE, None, None, ,  
02/09/2018 09:23, -1, 81, -6 ,1, 6, NE, None, None, ,  
02/09/2018 09:20, -2, 81, -6 ,1, 7, NE, None, None, ,  
02/09/2018 09:13, -2, 82, -6 ,6, 8, NE, None, None, ,  
02/09/2018 09:05, -2, 83, -6 ,6, 9, NE, None, None, ,  
02/09/2018 09:03, -2, 84, -6 ,6, 9, NE, None, None, ,  
02/09/2018 08:53, -2, 83, -6 ,7, 7, NE, None, None, ,  
02/09/2018 08:50, -2, 84, -6 ,6, 7, NE, None, None, ,  
02/09/2018 08:43, -2, 84, -6 ,6, 9, NE, None, None, ,  
02/09/2018 08:35, -3, 84, -6 ,7, 9, NE, Yes, , ,  
02/09/2018 08:32, -3, 84, -6 ,7, 9, NE, Yes, , ,  
02/09/2018 08:22, -3, 85, -6 ,9, 10, NE, None, None, ,  
02/09/2018 08:20, -3, 84, -6 ,9, 10, NE, None, None, ,  
02/09/2018 08:12, -3, 84, -6 ,7, 7, NE, None, None, ,  
02/09/2018 08:04, -3, 83, -7 ,6, 7, NE, None, None, ,  
02/09/2018 08:02, -2, 83, -6 ,6, 7, NE, None, None, ,  
02/09/2018 07:52, -2, 83, -6 ,5, 6, NE, Yes, , ,  
02/09/2018 07:49, -2, 83, -6 ,5, 6, NE, None, None, ,  
02/09/2018 07:42, -2, 83, -6 ,4, 5, NE, Yes, , ,  
02/09/2018 07:34, -2, 83, -6 ,4, 6, NE, Yes, , ,  
02/09/2018 07:32, -2, 83, -6 ,4, 6, NE, None, None, ,  
02/09/2018 07:22, -2, 84, -5 ,0, 4, NE, Yes, , ,  
02/09/2018 07:20, -2, 84, -5 ,1, 4, NE, Yes, , ,  
02/09/2018 07:12, -2, 83, -5 ,3, 5, NE, None, None, ,  
02/09/2018 07:05, -2, 83, -5 ,1, 4, NE, None, None, ,  
02/09/2018 07:02, -2, 83, -6 ,0, 4, NE, None, None, ,  
02/09/2018 06:52, -2, 82, -6 ,4, 5, NE, None, None, ,  
02/09/2018 06:50, -2, 83, -6 ,4, 5, NE, None, None, ,  
02/09/2018 06:42, -2, 82, -6 ,3, 4, NE, None, None, ,  
02/09/2018 06:36, -2, 83, -6 ,4, 4, NE, None, None, ,  
02/09/2018 06:32, -2, 82, -6 ,4, 4, NE, None, None, ,  
02/09/2018 06:22, -2, 81, -6 ,0, 0, NE, None, None, ,  
02/09/2018 06:21, -2, 81, -6 ,0, 0, NE, None, None, ,  
02/09/2018 06:12, -2, 82, -6 ,0, 0, NE, None, None, ,  
02/09/2018 06:06, -2, 82, -6 ,0, 0, NE, Yes, , ,  
02/09/2018 06:02, -2, 81, -6 ,0, 0, NE, None, None, ,  
02/09/2018 05:52, -2, 82, -6 ,0, 0, NE, Yes, , ,  
02/09/2018 05:51, -2, 82, -6 ,0, 0, NE, Yes, , ,  
02/09/2018 05:42, -2, 81, -6 ,0, 4, NE, Yes, , ,  
02/09/2018 05:36, -2, 82, -6 ,1, 4, NE, Yes, , ,  
02/09/2018 05:32, -1, 82, -6 ,0, 0, NE, Yes, , ,  
02/09/2018 05:22, -2, 80, -6 ,0, 4, NE, Yes, , ,  
02/09/2018 05:21, -2, 80, -6 ,0, 4, NE, Yes, , ,  
02/09/2018 05:12, -2, 79, -6 ,3, 6, NE, Yes, , ,  
02/09/2018 05:06, -1, 81, -6 ,4, 6, NE, Yes, , ,  
02/09/2018 05:02, -1, 80, -6 ,4, 6, NE, Yes, , ,  
02/09/2018 04:52, -1, 81, -6 ,0, 0, NE, None, None, ,  
02/09/2018 04:51, -1, 81, -6 ,0, 0, NE, None, None, ,  
02/09/2018 04:42, -1, 80, -6 ,0, 0, NE, Yes, , ,  
02/09/2018 04:36, -1, 80, -6 ,0, 4, NE, Yes, , ,  
02/09/2018 04:31, -1, 79, -6 ,2, 4, NE, None, None, ,  
02/09/2018 04:21, -1, 81, -6 ,2, 6, NE, Yes, , ,  
02/09/2018 04:21, -1, 81, -6 ,1, 7, NE, Yes, , ,  
02/09/2018 04:11, -1, 81, -6 ,4, 7, NE, Yes, , ,  
02/09/2018 04:06, -1, 81, -6 ,4, 7, NE, Yes, , ,  
02/09/2018 04:01, -1, 82, -6 ,4, 6, NE, Yes, , ,  
02/09/2018 03:51, -1, 81, -6 ,3, 6, NE, Yes, , ,  
02/09/2018 03:51, -1, 81, -6 ,2, 6, NE, Yes, , ,  
02/09/2018 03:41, -1, 81, -6 ,4, 7, NE, Yes, , ,  
02/09/2018 03:36, -1, 81, -6 ,6, 8, NE, Yes, , ,  
02/09/2018 03:31, -1, 80, -6 ,6, 9, NE, None, None, ,  
02/09/2018 03:21, -1, 81, -6 ,7, 10, NE, Yes, , ,  
02/09/2018 03:21, -1, 81, -6 ,7, 10, NE, Yes, , ,  
02/09/2018 03:11, -1, 81, -6 ,6, 10, NE, Yes, , ,  
02/09/2018 03:06, -1, 80, -6 ,7, 10, NE, Yes, , ,  
02/09/2018 03:01, -2, 80, -6 ,7, 14, NE, None, None, ,  
02/09/2018 02:51, -2, 82, -6 ,9, 12, NE, Yes, , ,  
02/09/2018 02:51, -2, 82, -6 ,9, 12, NE, Yes, , ,  
02/09/2018 02:41, -1, 82, -6 ,7, 10, NE, Yes, , ,  
02/09/2018 02:36, -1, 82, -5 ,7, 11, NE, Yes, , ,  
02/09/2018 02:31, -1, 82, -6 ,7, 11, NE, Yes, , ,  
02/09/2018 02:21, -1, 81, -6 ,9, 11, NE, Yes, , ,  
02/09/2018 02:21, -1, 81, -6 ,9, 11, NE, Yes, , ,  
02/09/2018 02:11, -1, 81, -5 ,6, 7, NE, Yes, , ,  
02/09/2018 02:05, -1, 81, -5 ,6, 9, NE, Yes, , ,  
02/09/2018 02:01, -1, 81, -5 ,6, 9, NE, Yes, , ,  
02/09/2018 01:51, -1, 81, -6 ,7, 8, NE, None, None, ,  
02/09/2018 01:51, -1, 81, -6 ,7, 8, NE, None, None, ,  
02/09/2018 01:40, -1, 81, -6 ,7, 8, NE, None, None, ,  
02/09/2018 01:36, -1, 81, -6 ,6, 9, NE, None, None, ,  
02/09/2018 01:30, -1, 80, -6 ,7, 9, NE, None, None, ,  
02/09/2018 01:21, -1, 80, -6 ,7, 9, NE, None, None, ,  
02/09/2018 01:20, -1, 80, -6 ,7, 9, NE, None, None, ,  
02/09/2018 01:10, -2, 80, -6 ,6, 10, NE, None, None, ,  
02/09/2018 01:06, -1, 80, -6 ,8, 10, NE, None, None, ,  
02/09/2018 01:00, -1, 80, -6 ,7, 10, NE, None, None, ,  
02/09/2018 00:51, -1, 79, -6 ,7, 9, NE, None, None, ,  
02/09/2018 00:50, -1, 79, -6 ,7, 8, NE, None, None, ,  
02/09/2018 00:40, -1, 79, -6 ,7, 9, NE, None, None, ,  
02/09/2018 00:36, -1, 79, -6 ,7, 9, NE, None, None, ,  
02/09/2018 00:30, -1, 79, -6 ,8, 9, NE, Yes, , ,  
02/09/2018 00:21, -1, 80, -5 ,5, 6, NE, Yes, , ,  
02/09/2018 00:20, -1, 80, -5 ,4, 7, NE, Yes, , ,  
02/09/2018 00:10, -1, 80, -5 ,7, 9, NE, Yes, , ,  
02/09/2018 00:06, -1, 80, -5 ,5, 9, NE, None, None, ,  
02/09/2018 00:00, -1, 80, -5 ,7, 9, NE, None, None, ,  
02/08/2018 23:51, 0, 80, -5 ,4, 6, NE, Yes, , ,  
02/08/2018 23:50, 0, 80, -5 ,4, 6, NE, Yes, , ,  
02/08/2018 23:40, 0, 80, -5 ,6, 9, NE, Yes, , ,  
02/08/2018 23:36, 0, 79, -5 ,7, 9, NE, Yes, , ,  
02/08/2018 23:30, 0, 79, -5 ,6, 7, NE, Yes, , ,  
02/08/2018 23:21, 0, 80, -5 ,5, 6, NE, Yes, , ,  
02/08/2018 23:20, 0, 80, -5 ,6, 6, NE, Yes, , ,  
02/08/2018 23:10, 0, 80, -5 ,6, 8, NE, Yes, , ,  
02/08/2018 23:06, 0, 80, -4 ,6, 8, NE, Yes, , ,  
02/08/2018 23:00, 0, 80, -5 ,6, 7, NE, Yes, , ,  
02/08/2018 22:51, 0, 79, -5 ,6, 10, NE, None, None, ,  
02/08/2018 22:50, 0, 79, -5 ,6, 10, NE, None, None, ,  
02/08/2018 22:39, 1, 77, -5 ,9, 11, NE, None, None, ,  
02/08/2018 22:36, 1, 76, -5 ,8, 10, NE, None, None, ,  
02/08/2018 22:29, 1, 77, -5 ,6, 7, NE, None, None, ,  
02/08/2018 22:21, 1, 78, -5 ,4, 7, NE, None, None, ,  
02/08/2018 22:19, 1, 78, -5 ,4, 7, NE, None, None, ,  
02/08/2018 22:09, 1, 78, -5 ,6, 8, NE, None, None, ,  
02/08/2018 22:06, 1, 78, -5 ,6, 8, NE, None, None, ,  
02/08/2018 21:59, 1, 79, -4 ,4, 6, NE, None, None, ,  
02/08/2018 21:51, 1, 79, -4 ,4, 9, NE, None, None, ,  
02/08/2018 21:49, 1, 79, -5 ,5, 9, NE, None, None, ,  
02/08/2018 21:39, 1, 80, -4 ,7, 14, NE, None, None, ,  
02/08/2018 21:36, 0, 80, -4 ,9, 14, NE, None, None, ,  
02/08/2018 21:29, 0, 81, -4 ,9, 12, NE, None, None, ,  
02/08/2018 21:21, 0, 81, -4 ,7, 11, NE, Yes, , ,  
02/08/2018 21:19, 0, 80, -4 ,9, 11, NE, Yes, , ,  
02/08/2018 21:09, 1, 80, -4 ,9, 12, NE, Yes, , ,  
02/08/2018 21:06, 1, 80, -4 ,7, 10, NE, Yes, , ,  
02/08/2018 20:59, 1, 79, -5 ,7, 9, NE, Yes, , ,  
02/08/2018 20:51, 1, 80, -4 ,6, 9, NE, None, None, ,  
02/08/2018 20:49, 1, 80, -4 ,4, 9, NE, None, None, ,  
02/08/2018 20:39, 1, 79, -4 ,9, 12, NE, None, None, ,  
02/08/2018 20:36, 1, 79, -4 ,9, 15, NE, None, None, ,  
02/08/2018 20:29, 1, 79, -4 ,12, 17, NE, None, None, ,  
02/08/2018 20:21, 1, 81, -4 ,11, 17, NE, None, None, ,  
02/08/2018 20:19, 1, 80, -4 ,13, 19, NE, None, None, ,  
02/08/2018 20:09, 1, 81, -4 ,15, 19, NE, None, None, ,  
02/08/2018 20:06, 1, 80, -4 ,15, 19, NE, Yes, , ,  
02/08/2018 19:59, 1, 81, -3 ,14, 21, NE, Yes, , ,  
02/08/2018 19:51, 1, 81, -3 ,16, 25, NE, None, None, ,  
02/08/2018 19:49, 1, 80, -3 ,17, 25, NE, None, None, ,  
02/08/2018 19:38, 1, 80, -4 ,20, 24, NE, None, None, ,  
02/08/2018 19:36, 1, 80, -4 ,20, 24, NE, None, None, ,  
02/08/2018 19:28, 1, 81, -3 ,17, 25, NE, None, None, ,  
02/08/2018 19:20, 1, 80, -3 ,19, 23, NE, None, None, ,  
02/08/2018 19:18, 1, 82, -3 ,18, 23, NE, None, None, ,  
02/08/2018 19:08, 1, 81, -3 ,19, 22, NE, None, None, ,  
02/08/2018 19:06, 1, 82, -3 ,18, 21, NE, None, None, ,  
02/08/2018 18:58, 2, 82, -2 ,12, 19, NE, Yes, , ,  
02/08/2018 18:51, 2, 83, -3 ,15, 18, NE, Yes, , ,  
02/08/2018 18:48, 2, 83, -2 ,14, 19, NE, Yes, , ,  
02/08/2018 18:38, 1, 82, -3 ,16, 19, NE, None, None, ,  
02/08/2018 18:36, 2, 82, -3 ,16, 19, NE, None, None, ,  
02/08/2018 18:28, 2, 82, -2 ,14, 20, NE, Yes, , ,  
02/08/2018 18:20, 2, 82, -3 ,16, 19, NE, Yes, , ,  
02/08/2018 18:18, 2, 82, -2 ,13, 19, NE, None, None, ,  
Change End Date:

Copyright © 1998-2015 Vaisala, Inc.
All Rights Reserved
Send comments about the data to:
SCAN Web ® is a registered trademark of Vaisala, Inc.
SCAN Web Version 6.0